LOWIEDFH

Guest
Details From LOWI - Innsbruck Kranebitten
To EDFH - Frankfurt Hahn
Flight Number -
Tags Generated
Created
Modified
Stats Distance 228 nm / 423 km
Max Altitude 0 ft / 0 m
Waypoints 3
Social Downloads 2
Likes 0
Share VATSIM

Download

Looking for another format? Having issues loading an existing format? Contact us
Advertisement - Login to hide

Notes

Generated

Route

LOWI KIR EDFH

ID Type Via Altitude Latitude Longitude Leg Dist Tot Dist Heading (true) Name
O LOWI APT - 0 ft / 0 m 47.25883˚ 11.33091˚ - 0 nm - -
KIR VOR - 0 ft / 0 m 49.85024˚ 7.36958˚ 221 nm 221 nm 316° / 313° KIRN VORTAC
O EDFH APT - 0 ft / 0 m 49.93139˚ 7.24688˚ 6 nm 228 nm 316° / 316° -

Altitude Profile

Advertisement - Login to hide

Weather


0- 5 10 15 20 25 30 35+ Temperature / ° C

Clouds and Precipitation
Forecast for 2018-05-28 00:00 UTC. Updated 2 hours ago

Ground ~20,000 ft ~40,000 ft Winds

LOWI

Details ICAO LOWI (INN)
Name Innsbruck Kranebitten
Region Austria
Timezone Europe/Vienna (UTC+2.0)
Stats Elevation 1,906 ft / 581 m (AMSL)
Location 47.260226° 11.343967°
Runways 1
Magnetic Variation 3.073° E

METAR

LOWI 280120Z AUTO VRB02KT 9999 NSC 14/11 Q1019

Decode

TAF

TAF LOWI 272315Z 2800/2824 27004KT CAVOK TX27/2813Z TN14/2804Z BECMG 2805/2807 27008KT BECMG 2809/2811 10010KT 9999 FEW070 SCT150 BKN300 TEMPO 2812/2818 12015G25KT SCT070 FEW070CB PROB30 TEMPO 2813/2818 -TSRA SCT070CB BKN070 BECMG 2819/2821 27005KT CAVOK

Decode

Departure Runways

ID Width Length Bearing (true) Bearing (mag) Surface Threshold Offset Overrun Length
08 148 ft / 45 m 6,545 ft / 1,995 m 81.02° 77.95° Asphalt 338 ft / 103 m 0 ft / 0 m
26 148 ft / 45 m 6,545 ft / 1,995 m 261.04° 257.97° Asphalt 0 ft / 0 m 0 ft / 0 m

EDFH

Details ICAO EDFH (HHN)
Name Frankfurt Hahn
Region Germany - Civil
Timezone Europe/Berlin (UTC+2.0)
Stats Elevation 1,649 ft / 503 m (AMSL)
Location 49.945808° 7.261082°
Runways 1
Magnetic Variation 2.041° E

METAR

EDFH 280120Z 12004KT 080V150 CAVOK 16/14 Q1018

Decode

TAF

TAF EDFH 272300Z 2800/2824 13005KT 9999 FEW030 PROB30 TEMPO 2800/2807 1200 BCFG BKN002 BECMG 2806/2809 07006KT

Decode

Destination Runways

ID Width Length Bearing (true) Bearing (mag) Surface Threshold Offset Overrun Length
03 148 ft / 45 m 12,457 ft / 3,797 m 32.37° 30.33° Asphalt 3,461 ft / 1,055 m 0 ft / 0 m
21 148 ft / 45 m 12,457 ft / 3,797 m 212.39° 210.35° Asphalt 984 ft / 300 m 0 ft / 0 m

Approach Navaids

Runway Type Ident Frequency Range Bearing (true) Bearing (mag) Slope Elevation
03 Localiser IHAE 109.30 MHz 18 nm / 33 km 32.39° 30.35° - 1,595 ft / 486 m (AMSL)
03 Glidescope IHAE 109.30 MHz 10 nm / 19 km 32.39° 30.35° 3.00° 1,648 ft / 502 m (AMSL)
21 Localiser IHAW 111.30 MHz 18 nm / 33 km 212.38° 210.34° - 1,648 ft / 502 m (AMSL)
21 Glidescope IHAW 111.30 MHz 10 nm / 19 km 212.39° 210.35° 3.00° 1,600 ft / 488 m (AMSL)

Popular Alternatives